createdAt,value
2019-04-16T00:02:55.400Z,1.57
2019-04-16T00:08:09.740Z,0.98
2019-04-16T00:13:19.318Z,1.06
2019-04-16T00:18:23.342Z,1.08
2019-04-16T00:23:39.429Z,0.84
2019-04-16T00:28:42.516Z,0.66
2019-04-16T00:33:45.570Z,0.53
2019-04-16T00:38:48.607Z,0.29
2019-04-16T00:43:51.804Z,0.65
2019-04-16T00:48:54.973Z,0.71
2019-04-16T00:53:58.017Z,0.73
2019-04-16T00:59:01.187Z,0.72
2019-04-16T01:04:05.322Z,0.63
2019-04-16T01:09:09.006Z,0.40
2019-04-16T01:14:12.179Z,0.57
2019-04-16T01:19:15.547Z,0.43
2019-04-16T01:24:20.213Z,0.58
2019-04-16T01:29:23.974Z,0.50
2019-04-16T01:34:49.433Z,-0.14
2019-04-16T01:39:54.297Z,0.13
2019-04-16T01:44:59.781Z,0.46
2019-04-16T01:50:02.660Z,0.58
2019-04-16T01:55:06.232Z,0.46
2019-04-16T02:00:10.035Z,0.18
2019-04-16T02:05:13.598Z,0.06
2019-04-16T02:10:16.869Z,-0.01
2019-04-16T02:15:21.935Z,-0.03
2019-04-16T02:20:25.003Z,-0.03
2019-04-16T02:25:28.452Z,-0.23
2019-04-16T02:30:37.578Z,-0.33
2019-04-16T02:35:36.531Z,-0.01
2019-04-16T02:40:39.736Z,-0.43
2019-04-16T02:45:43.070Z,-0.48
2019-04-16T02:50:48.688Z,-0.45
2019-04-16T02:56:18.757Z,-0.42
2019-04-16T03:01:44.810Z,-0.18
2019-04-16T03:06:47.930Z,-0.30
2019-04-16T03:11:51.338Z,-0.23
2019-04-16T03:17:10.667Z,-0.53
2019-04-16T03:22:13.251Z,-0.75
2019-04-16T03:27:16.407Z,-0.78
2019-04-16T03:32:19.467Z,-0.61
2019-04-16T03:37:22.666Z,-0.50
2019-04-16T03:42:27.381Z,-0.36
2019-04-16T03:47:31.121Z,-0.15
2019-04-16T03:52:34.523Z,-0.90
2019-04-16T03:57:37.578Z,-1.08
2019-04-16T04:02:40.729Z,-1.12
2019-04-16T04:07:44.953Z,-0.93
2019-04-16T04:12:48.344Z,-0.52
2019-04-16T04:17:51.525Z,-0.21
2019-04-16T04:22:57.059Z,-0.17
2019-04-16T04:28:00.017Z,-0.26
2019-04-16T04:33:07.426Z,-0.09
2019-04-16T04:38:08.066Z,0.25
2019-04-16T04:43:11.237Z,0.22
2019-04-16T04:48:14.395Z,-0.02
2019-04-16T04:53:19.434Z,0.05
2019-04-16T04:58:22.566Z,0.48
2019-04-16T05:04:02.137Z,0.85
2019-04-16T05:09:06.585Z,1.12
2019-04-16T05:14:09.672Z,1.38
2019-04-16T05:19:14.852Z,1.53
2019-04-16T05:24:17.869Z,1.71
2019-04-16T05:29:21.006Z,1.94
2019-04-16T05:34:24.094Z,2.89
2019-04-16T05:39:28.590Z,3.10
2019-04-16T05:44:34.015Z,3.16
2019-04-16T05:49:37.107Z,3.92
2019-04-16T05:55:01.408Z,4.68
2019-04-16T06:00:12.240Z,4.59
2019-04-16T06:05:15.628Z,4.97
2019-04-16T06:10:19.224Z,5.21
2019-04-16T06:15:34.369Z,5.61
2019-04-16T06:21:02.957Z,5.76
2019-04-16T06:26:37.759Z,6.01
2019-04-16T06:31:59.682Z,5.68
2019-04-16T06:37:26.758Z,6.19
2019-04-16T06:42:34.552Z,6.04
2019-04-16T06:47:55.849Z,5.76
2019-04-16T06:53:25.038Z,6.27
2019-04-16T06:58:57.242Z,6.60
2019-04-16T07:04:29.513Z,6.96
2019-04-16T07:09:46.680Z,6.60
2019-04-16T07:14:49.794Z,7.00
2019-04-16T07:19:53.012Z,7.09
2019-04-16T07:24:56.899Z,7.27
2019-04-16T07:30:08.868Z,7.49
2019-04-16T07:35:31.956Z,7.79
2019-04-16T07:40:53.047Z,8.11
2019-04-16T07:46:03.550Z,8.24
2019-04-16T07:51:17.592Z,8.11
2019-04-16T07:56:23.384Z,8.45
2019-04-16T08:01:26.664Z,8.56
2019-04-16T08:06:29.731Z,9.02
2019-04-16T08:11:33.352Z,9.25
2019-04-16T08:16:47.134Z,9.56
2019-04-16T08:21:44.249Z,9.77
2019-04-16T08:26:46.578Z,10.46
2019-04-16T08:31:50.067Z,10.37
2019-04-16T08:36:53.142Z,10.00
2019-04-16T08:41:56.279Z,10.24
2019-04-16T08:46:59.606Z,10.03
2019-04-16T08:52:02.901Z,10.41
2019-04-16T08:57:06.364Z,10.42
2019-04-16T09:02:10.510Z,10.75
2019-04-16T09:07:31.739Z,10.52
2019-04-16T09:12:34.937Z,10.46
2019-04-16T09:17:40.790Z,10.56
2019-04-16T09:22:49.364Z,10.46
2019-04-16T09:27:53.192Z,11.02
2019-04-16T09:33:06.504Z,10.57
2019-04-16T09:38:28.031Z,10.59
2019-04-16T09:43:32.046Z,10.63
2019-04-16T09:48:35.604Z,10.41
2019-04-16T09:53:40.365Z,10.58
2019-04-16T09:58:44.133Z,11.04
2019-04-16T10:03:49.527Z,11.05
2019-04-16T10:08:52.789Z,10.97
2019-04-16T10:13:56.008Z,11.13
2019-04-16T10:18:59.472Z,11.22
2019-04-16T10:24:17.536Z,11.28
2019-04-16T10:29:20.812Z,11.29
2019-04-16T10:34:23.979Z,11.16
2019-04-16T10:39:49.402Z,10.99
2019-04-16T10:45:12.929Z,11.02
2019-04-16T10:50:25.779Z,11.18
2019-04-16T10:55:47.473Z,10.99
2019-04-16T11:00:56.475Z,10.97
2019-04-16T11:06:04.302Z,11.38
2019-04-16T11:11:07.478Z,11.69
2019-04-16T11:16:12.548Z,11.49
2019-04-16T11:21:15.953Z,11.46
2019-04-16T11:26:19.371Z,11.32
2019-04-16T11:31:22.665Z,11.63
2019-04-16T11:36:30.601Z,11.52
2019-04-16T11:41:30.835Z,11.48
2019-04-16T11:46:35.154Z,11.96
2019-04-16T11:51:38.274Z,11.87
2019-04-16T11:56:44.744Z,11.82
2019-04-16T12:02:05.851Z,11.97
2019-04-16T12:07:40.592Z,12.04
2019-04-16T12:13:09.052Z,12.27
2019-04-16T12:18:32.297Z,12.30
2019-04-16T12:23:53.488Z,12.37
2019-04-16T12:29:18.901Z,12.24
2019-04-16T12:34:44.240Z,12.34
2019-04-16T12:40:05.501Z,12.42
2019-04-16T12:45:27.098Z,12.45
2019-04-16T12:50:39.043Z,12.59
2019-04-16T12:56:10.584Z,12.70
2019-04-16T13:01:21.378Z,13.02
2019-04-16T13:06:32.887Z,12.68
2019-04-16T13:11:45.100Z,12.77
2019-04-16T13:17:07.052Z,12.82
2019-04-16T13:22:11.090Z,12.74
2019-04-16T13:27:30.824Z,13.23
2019-04-16T13:32:33.990Z,13.24
2019-04-16T13:37:38.039Z,13.04
2019-04-16T13:42:41.397Z,13.12
2019-04-16T13:47:45.808Z,13.64
2019-04-16T13:52:52.006Z,12.99
2019-04-16T13:58:04.257Z,13.37
2019-04-16T14:03:10.512Z,13.52
2019-04-16T14:08:13.641Z,13.65
2019-04-16T14:13:16.788Z,13.62
2019-04-16T14:18:21.808Z,13.24
2019-04-16T14:23:25.030Z,13.57
2019-04-16T14:28:28.176Z,13.49
2019-04-16T14:33:51.159Z,13.63
2019-04-16T14:38:58.050Z,13.51
2019-04-16T14:44:06.672Z,13.62
2019-04-16T14:49:09.923Z,13.57
2019-04-16T14:54:35.934Z,13.57
2019-04-16T14:59:57.165Z,13.64
2019-04-16T15:05:08.506Z,13.67
2019-04-16T15:10:26.167Z,13.57
2019-04-16T15:15:38.454Z,13.66
2019-04-16T15:21:16.343Z,13.77
2019-04-16T15:26:31.061Z,13.57
2019-04-16T15:31:56.128Z,13.61
2019-04-16T15:37:18.833Z,13.72
2019-04-16T15:42:36.433Z,13.96
2019-04-16T15:47:58.222Z,13.83
2019-04-16T15:53:05.574Z,13.80
2019-04-16T15:58:14.431Z,13.78
2019-04-16T16:03:40.192Z,13.48
2019-04-16T16:09:09.241Z,13.66
2019-04-16T16:14:12.581Z,13.63
2019-04-16T16:19:15.717Z,13.52
2019-04-16T16:24:18.802Z,13.45
2019-04-16T16:29:22.062Z,13.60
2019-04-16T16:34:25.441Z,13.55
2019-04-16T16:39:28.796Z,13.59
2019-04-16T16:44:32.057Z,13.60
2019-04-16T16:49:35.618Z,13.36
2019-04-16T16:54:39.075Z,13.21
2019-04-16T17:00:07.518Z,13.12
2019-04-16T17:05:16.298Z,12.99
2019-04-16T17:10:19.483Z,12.87
2019-04-16T17:15:22.915Z,12.73
2019-04-16T17:20:26.373Z,12.61
2019-04-16T17:25:36.505Z,12.36
2019-04-16T17:30:35.618Z,12.13
2019-04-16T17:35:39.102Z,12.02
2019-04-16T17:40:51.117Z,11.85
2019-04-16T17:46:24.940Z,11.71
2019-04-16T17:51:45.102Z,11.58
2019-04-16T17:57:13.828Z,11.45
2019-04-16T18:02:52.113Z,11.34
2019-04-16T18:08:08.069Z,11.25
2019-04-16T18:13:32.245Z,11.18
2019-04-16T18:18:57.188Z,10.77
2019-04-16T18:24:19.031Z,10.30
2019-04-16T18:29:32.826Z,9.49
2019-04-16T18:34:43.429Z,8.94
2019-04-16T18:39:53.434Z,8.91
2019-04-16T18:45:05.036Z,8.56
2019-04-16T18:50:15.602Z,8.44
2019-04-16T18:55:19.099Z,8.15
2019-04-16T19:00:48.193Z,8.36
2019-04-16T19:05:51.298Z,8.28
2019-04-16T19:10:54.977Z,8.23
2019-04-16T19:15:58.510Z,8.30
2019-04-16T19:21:01.718Z,8.13
2019-04-16T19:26:05.558Z,7.92
2019-04-16T19:31:09.060Z,7.73
2019-04-16T19:36:12.676Z,7.79
2019-04-16T19:41:16.033Z,7.49
2019-04-16T19:46:19.719Z,7.55
2019-04-16T19:51:23.116Z,7.49
2019-04-16T19:56:26.492Z,7.15
2019-04-16T20:01:29.837Z,7.07
2019-04-16T20:06:33.520Z,6.94
2019-04-16T20:11:36.969Z,6.82
2019-04-16T20:16:40.273Z,6.83
2019-04-16T20:21:43.412Z,6.85
2019-04-16T20:26:46.633Z,6.67
2019-04-16T20:31:49.782Z,6.32
2019-04-16T20:36:55.796Z,6.29
2019-04-16T20:42:00.117Z,6.43
2019-04-16T20:47:07.733Z,6.03
2019-04-16T20:52:08.456Z,6.03
2019-04-16T20:57:11.609Z,6.01
2019-04-16T21:02:14.697Z,5.82
2019-04-16T21:07:17.825Z,6.04
2019-04-16T21:12:21.146Z,5.82
2019-04-16T21:17:24.617Z,5.90
2019-04-16T21:22:28.909Z,6.02
2019-04-16T21:27:34.842Z,6.05
2019-04-16T21:33:00.543Z,6.04
2019-04-16T21:38:23.153Z,6.06
2019-04-16T21:43:26.434Z,5.99
2019-04-16T21:48:30.011Z,5.98
2019-04-16T21:53:33.188Z,5.96
2019-04-16T21:58:36.720Z,5.83
2019-04-16T22:03:42.256Z,5.69
2019-04-16T22:08:45.087Z,5.88
2019-04-16T22:13:50.715Z,6.04
2019-04-16T22:18:53.376Z,6.11
2019-04-16T22:23:56.591Z,6.10
2019-04-16T22:28:59.640Z,5.88
2019-04-16T22:34:02.841Z,6.04
2019-04-16T22:39:23.911Z,6.07
2019-04-16T22:44:46.522Z,6.13
2019-04-16T22:49:51.568Z,6.04
2019-04-16T22:54:54.846Z,6.07
2019-04-16T22:59:57.899Z,6.09
2019-04-16T23:05:01.007Z,6.01
2019-04-16T23:10:04.861Z,6.06
2019-04-16T23:15:09.859Z,6.05
2019-04-16T23:20:28.150Z,5.98
2019-04-16T23:25:17.957Z,5.98
2019-04-16T23:30:21.057Z,5.87
2019-04-16T23:35:25.069Z,6.06
2019-04-16T23:40:28.304Z,6.05
2019-04-16T23:46:01.373Z,6.01
2019-04-16T23:51:12.656Z,6.13
2019-04-16T23:56:35.344Z,6.12
